Time;durP1;ratioP1;P1;durP2;ratioP2;P2;SDS_P1;SDS_P2;PMS_P1;PMS_P2;Temp;Humidity;BMP_temperature;BMP_pressure;BME280_temperature;BME280_humidity;BME280_pressure;Samples;Min_cycle;Max_cycle;Signal;HPM_P1;HPM_P2
2021/01/10 00:01:25;;;;;;;41.37;22.57;;;3.00;99.90;;;;;;4979866;28;20233;-77
2021/01/10 00:03:50;;;;;;;38.23;21.93;;;2.90;99.90;;;;;;5013786;28;20183;-78
2021/01/10 00:06:16;;;;;;;42.80;23.40;;;3.00;99.90;;;;;;4997738;28;20192;-76
2021/01/10 00:08:41;;;;;;;41.17;22.20;;;2.90;99.90;;;;;;5014413;28;20180;-79
2021/01/10 00:11:07;;;;;;;41.07;22.47;;;2.90;99.90;;;;;;4998661;28;20172;-79
2021/01/10 00:13:33;;;;;;;44.70;23.70;;;2.80;99.90;;;;;;5014273;28;20175;-79
2021/01/10 00:15:58;;;;;;;37.23;22.60;;;3.00;99.90;;;;;;4997618;28;20196;-80
2021/01/10 00:18:24;;;;;;;39.80;21.87;;;2.90;99.90;;;;;;5015432;28;20183;-79
2021/01/10 00:20:49;;;;;;;37.50;21.77;;;2.90;99.90;;;;;;5014131;28;20240;-77
2021/01/10 00:23:15;;;;;;;38.53;22.07;;;2.90;99.90;;;;;;4997756;28;20310;-79
2021/01/10 00:25:40;;;;;;;39.73;23.17;;;2.90;99.90;;;;;;4997956;28;20223;-79
2021/01/10 00:28:06;;;;;;;35.63;21.27;;;2.80;99.90;;;;;;4997545;28;20179;-79
2021/01/10 00:30:32;;;;;;;36.07;21.27;;;2.90;99.90;;;;;;5013850;28;20168;-78
2021/01/10 00:32:57;;;;;;;39.60;22.00;;;2.90;99.90;;;;;;4997736;28;20180;-77
2021/01/10 00:35:24;;;;;;;41.00;21.87;;;2.80;99.90;;;;;;5013895;28;20176;-78
2021/01/10 00:37:53;;;;;;;35.93;20.13;;;2.80;99.90;;;;;;5013701;28;20564;-77
2021/01/10 00:40:19;;;;;;;33.53;19.97;;;2.70;99.90;;;;;;5013880;28;20214;-77
2021/01/10 00:42:45;;;;;;;42.37;22.07;;;2.60;99.90;;;;;;5013632;28;20227;-79
2021/01/10 00:45:12;;;;;;;36.13;20.23;;;2.60;99.90;;;;;;4997790;28;20176;-76
2021/01/10 00:47:37;;;;;;;40.13;22.27;;;2.60;99.90;;;;;;5013738;28;20164;-78
2021/01/10 00:50:04;;;;;;;36.30;21.47;;;2.60;99.90;;;;;;4997498;28;20558;-78
2021/01/10 00:52:30;;;;;;;37.77;21.77;;;2.70;99.90;;;;;;4997624;28;20659;-79
2021/01/10 00:54:56;;;;;;;37.20;21.10;;;2.70;99.90;;;;;;5014780;28;20217;-79
2021/01/10 00:57:21;;;;;;;36.77;21.07;;;2.70;99.90;;;;;;5013288;28;20578;-79
2021/01/10 00:59:47;;;;;;;36.03;21.27;;;2.80;99.90;;;;;;5013460;28;20241;-78
2021/01/10 01:02:13;;;;;;;41.83;21.80;;;2.70;99.90;;;;;;4996194;28;20203;-79
2021/01/10 01:04:38;;;;;;;35.13;20.83;;;2.80;99.90;;;;;;5013595;28;20195;-79
2021/01/10 01:07:04;;;;;;;38.87;20.67;;;2.90;99.90;;;;;;4996874;28;20597;-78
2021/01/10 01:09:29;;;;;;;33.80;19.10;;;2.80;99.90;;;;;;4997052;28;20717;-78
2021/01/10 01:11:55;;;;;;;29.63;19.20;;;2.70;99.90;;;;;;4997010;28;20179;-78
2021/01/10 01:14:20;;;;;;;31.00;19.07;;;2.70;99.90;;;;;;4996828;28;20241;-78
2021/01/10 01:16:46;;;;;;;31.43;18.33;;;2.70;99.90;;;;;;4996667;28;20199;-79
2021/01/10 01:19:11;;;;;;;29.27;18.67;;;2.70;99.90;;;;;;5013161;28;20222;-79
2021/01/10 01:21:37;;;;;;;31.50;18.20;;;2.80;99.90;;;;;;4996269;28;20218;-78
2021/01/10 01:24:03;;;;;;;33.43;18.77;;;2.80;99.90;;;;;;4996783;28;20178;-78
2021/01/10 01:26:28;;;;;;;32.40;18.60;;;2.80;99.90;;;;;;4996390;28;20230;-78
2021/01/10 01:28:54;;;;;;;30.40;18.97;;;2.70;99.90;;;;;;5014011;28;20214;-79
2021/01/10 01:31:21;;;;;;;29.03;18.30;;;2.70;99.90;;;;;;4980662;28;20214;-79
2021/01/10 01:33:46;;;;;;;32.13;18.77;;;2.80;99.90;;;;;;4996561;28;20237;-78
2021/01/10 01:36:14;;;;;;;32.63;18.80;;;2.70;99.90;;;;;;4996317;28;20310;-78
2021/01/10 01:38:40;;;;;;;32.70;18.00;;;2.60;99.90;;;;;;5012685;28;20251;-78
2021/01/10 01:41:08;;;;;;;31.23;17.53;;;2.70;99.90;;;;;;4980141;28;20221;-78
2021/01/10 01:43:34;;;;;;;32.07;17.20;;;2.60;99.90;;;;;;5012629;28;20197;-78
2021/01/10 01:46:01;;;;;;;30.50;17.27;;;2.70;99.90;;;;;;4996143;28;20306;-78
2021/01/10 01:48:27;;;;;;;28.37;15.73;;;2.70;99.90;;;;;;4996283;28;20164;-78
2021/01/10 01:50:52;;;;;;;23.97;16.17;;;2.80;99.90;;;;;;4996113;28;20229;-79
2021/01/10 01:53:18;;;;;;;23.80;16.00;;;2.80;99.90;;;;;;5012698;28;20187;-78
2021/01/10 01:55:44;;;;;;;25.30;16.23;;;2.80;99.90;;;;;;4995847;28;20210;-78
2021/01/10 01:58:09;;;;;;;25.30;16.60;;;2.70;99.90;;;;;;4995752;28;20218;-78
2021/01/10 02:00:35;;;;;;;25.43;16.00;;;2.70;99.90;;;;;;4996152;28;20179;-78
2021/01/10 02:03:00;;;;;;;22.23;15.47;;;2.80;99.90;;;;;;5013309;28;20202;-78
2021/01/10 02:05:27;;;;;;;22.47;15.40;;;2.70;99.90;;;;;;4979589;28;20192;-78
2021/01/10 02:08:00;;;;;;;23.37;15.17;;;2.70;99.90;;;;;;4995494;28;20229;-79
2021/01/10 02:10:31;;;;;;;21.03;14.67;;;2.60;99.90;;;;;;4979725;28;20171;-78
2021/01/10 02:13:01;;;;;;;22.37;13.60;;;2.60;99.90;;;;;;4996288;28;20205;-78
2021/01/10 02:15:30;;;;;;;22.83;15.03;;;2.60;99.90;;;;;;4995973;28;20206;-78
2021/01/10 02:17:56;;;;;;;19.27;13.63;;;2.70;99.90;;;;;;4995913;28;20185;-78
2021/01/10 02:20:28;;;;;;;21.77;14.60;;;2.70;99.90;;;;;;4979638;28;20187;-78
2021/01/10 02:23:13;;;;;;;21.23;14.13;;;2.80;99.90;;;;;;5012204;28;20206;-78
2021/01/10 02:25:42;;;;;;;21.83;15.07;;;2.70;99.90;;;;;;5012096;28;20662;-78
2021/01/10 02:28:09;;;;;;;23.83;14.60;;;2.70;99.90;;;;;;4995545;28;20674;-78
2021/01/10 02:30:35;;;;;;;20.93;14.60;;;2.70;99.90;;;;;;4995611;28;20164;-78
2021/01/10 02:33:06;;;;;;;21.47;15.77;;;2.70;99.90;;;;;;4995590;28;20187;-78
2021/01/10 02:35:31;;;;;;;23.10;14.87;;;2.70;99.90;;;;;;4995667;28;20191;-78
2021/01/10 02:38:06;;;;;;;21.47;14.43;;;2.70;99.90;;;;;;4995313;28;20270;-78
2021/01/10 02:40:53;;;;;;;21.47;14.27;;;2.70;99.90;;;;;;5012813;28;20553;-78
2021/01/10 02:43:21;;;;;;;22.30;14.53;;;2.70;99.90;;;;;;4996959;28;20203;-78
2021/01/10 02:45:47;;;;;;;21.00;13.90;;;2.70;99.90;;;;;;4995099;28;20288;-78
2021/01/10 02:48:13;;;;;;;20.17;13.57;;;2.70;99.90;;;;;;5014297;28;20245;-78
2021/01/10 02:50:39;;;;;;;17.30;12.57;;;2.70;99.90;;;;;;4995343;28;20586;-78
2021/01/10 02:53:04;;;;;;;19.80;13.33;;;2.70;99.90;;;;;;5035626;23;20222;-82
2021/01/10 02:55:30;;;;;;;19.97;13.10;;;2.70;99.90;;;;;;5022845;28;20206;-83
2021/01/10 02:58:18;;;;;;;19.57;13.27;;;2.60;99.90;;;;;;5025178;28;20187;-82
2021/01/10 03:00:43;;;;;;;18.80;13.13;;;2.60;99.90;;;;;;5028612;28;20190;-83
2021/01/10 03:03:09;;;;;;;18.80;12.23;;;2.60;99.90;;;;;;5039591;28;20239;-83
2021/01/10 03:05:34;;;;;;;17.60;12.57;;;2.60;99.90;;;;;;5006127;28;20187;-82
2021/01/10 03:08:00;;;;;;;15.73;11.23;;;2.60;99.90;;;;;;5004880;28;20207;-83
2021/01/10 03:10:25;;;;;;;18.43;12.43;;;2.60;99.90;;;;;;5004041;28;20172;-83
2021/01/10 03:12:51;;;;;;;16.37;12.57;;;2.60;99.90;;;;;;5022016;28;20406;-83
2021/01/10 03:15:17;;;;;;;18.10;12.30;;;2.60;99.90;;;;;;5006740;28;20183;-84
2021/01/10 03:17:44;;;;;;;17.10;11.80;;;2.60;99.90;;;;;;5002440;28;20184;-82
2021/01/10 03:20:11;;;;;;;17.40;11.80;;;2.60;99.90;;;;;;5016883;28;20191;-84
2021/01/10 03:22:37;;;;;;;16.93;11.87;;;2.60;99.90;;;;;;5000696;28;20208;-82
2021/01/10 03:25:03;;;;;;;15.90;11.67;;;2.60;99.90;;;;;;5000818;28;20201;-83
2021/01/10 03:27:29;;;;;;;15.93;10.70;;;2.60;99.90;;;;;;5020901;28;20658;-83
2021/01/10 03:29:55;;;;;;;16.43;12.03;;;2.60;99.90;;;;;;5019978;28;20175;-83
2021/01/10 03:32:20;;;;;;;17.07;10.93;;;2.60;99.90;;;;;;5003907;28;20200;-83
2021/01/10 03:34:46;;;;;;;14.10;10.73;;;2.70;99.90;;;;;;5019975;28;20179;-83
2021/01/10 03:37:11;;;;;;;15.83;10.83;;;2.70;99.90;;;;;;5020309;28;20176;-83
2021/01/10 03:39:37;;;;;;;14.53;11.00;;;2.60;99.90;;;;;;5002848;28;20592;-84
2021/01/10 03:42:03;;;;;;;19.07;11.67;;;2.60;99.90;;;;;;5002512;28;20602;-83
2021/01/10 03:44:28;;;;;;;17.20;10.83;;;2.60;99.90;;;;;;5018347;28;20255;-83
2021/01/10 03:46:54;;;;;;;17.40;11.47;;;2.60;99.90;;;;;;5004830;28;20225;-82
2021/01/10 03:49:20;;;;;;;17.00;11.07;;;2.80;99.90;;;;;;5019578;28;20175;-83
2021/01/10 03:51:45;;;;;;;17.20;11.70;;;2.70;99.90;;;;;;5037675;28;20281;-83
2021/01/10 03:54:11;;;;;;;18.13;12.53;;;2.70;99.90;;;;;;5019075;28;20184;-81
2021/01/10 03:56:37;;;;;;;17.90;12.47;;;2.70;99.90;;;;;;5018482;28;20246;-83
2021/01/10 03:59:02;;;;;;;17.83;11.20;;;2.70;99.90;;;;;;5035201;28;20182;-82
2021/01/10 04:01:28;;;;;;;14.67;11.63;;;2.60;99.90;;;;;;5020181;28;20274;-82
2021/01/10 04:03:53;;;;;;;16.53;11.87;;;2.70;99.90;;;;;;5022187;28;20218;-81
2021/01/10 04:06:19;;;;;;;16.07;11.60;;;2.70;99.90;;;;;;5022577;28;20661;-83
2021/01/10 04:08:47;;;;;;;15.90;11.23;;;2.70;99.90;;;;;;5037129;28;20644;-82
2021/01/10 04:11:14;;;;;;;16.03;11.30;;;2.70;99.90;;;;;;5036946;28;20191;-82
2021/01/10 04:13:40;;;;;;;17.67;10.90;;;2.70;99.90;;;;;;5021756;28;20199;-82
2021/01/10 04:16:05;;;;;;;20.00;11.37;;;2.70;99.90;;;;;;5027280;28;20175;-81
2021/01/10 04:18:31;;;;;;;18.57;10.57;;;2.70;99.90;;;;;;5028258;28;20179;-82
2021/01/10 04:20:57;;;;;;;19.17;11.90;;;2.70;99.90;;;;;;5042279;28;20186;-82
2021/01/10 04:23:22;;;;;;;17.07;10.87;;;2.70;99.90;;;;;;5045084;28;20298;-81
2021/01/10 04:25:49;;;;;;;20.27;11.43;;;2.80;99.90;;;;;;5029075;28;20179;-81
2021/01/10 04:28:16;;;;;;;15.70;11.47;;;2.80;99.90;;;;;;5045578;28;20168;-81
2021/01/10 04:30:41;;;;;;;16.67;11.40;;;2.90;99.90;;;;;;5046023;28;20168;-82
2021/01/10 04:33:07;;;;;;;19.27;11.40;;;2.90;99.90;;;;;;5026672;28;20203;-81
2021/01/10 04:35:32;;;;;;;16.60;11.20;;;2.90;99.90;;;;;;5045759;28;20639;-81
2021/01/10 04:37:58;;;;;;;17.57;10.93;;;2.80;99.90;;;;;;5026289;28;20182;-81
2021/01/10 04:40:23;;;;;;;18.70;11.80;;;2.70;99.90;;;;;;5029298;28;20184;-82
2021/01/10 04:42:49;;;;;;;18.27;11.83;;;2.60;99.90;;;;;;5044568;28;20269;-82
2021/01/10 04:45:14;;;;;;;16.57;11.50;;;2.50;99.90;;;;;;5027991;28;20175;-81
2021/01/10 04:47:41;;;;;;;17.13;11.83;;;2.40;99.90;;;;;;5028576;28;20238;-82
2021/01/10 04:50:07;;;;;;;21.53;12.00;;;2.30;99.90;;;;;;5029014;28;20176;-81
2021/01/10 04:52:33;;;;;;;13.90;10.87;;;2.30;99.90;;;;;;5028122;28;20254;-81
2021/01/10 04:55:00;;;;;;;19.93;12.17;;;2.30;99.90;;;;;;5044294;28;20167;-81
2021/01/10 04:57:26;;;;;;;20.90;11.60;;;2.30;99.90;;;;;;5027081;28;20236;-81
2021/01/10 04:59:52;;;;;;;17.93;12.10;;;2.20;99.90;;;;;;5027318;28;20247;-81
2021/01/10 05:02:22;;;;;;;18.43;12.70;;;2.20;99.90;;;;;;5028640;28;20210;-81
2021/01/10 05:04:48;;;;;;;20.77;12.90;;;2.20;99.90;;;;;;5044111;28;20186;-82
2021/01/10 05:07:14;;;;;;;17.80;12.07;;;2.10;99.90;;;;;;5038110;28;20631;-81
2021/01/10 05:09:39;;;;;;;17.43;12.47;;;2.20;99.90;;;;;;5013597;28;20172;-81
2021/01/10 05:12:05;;;;;;;21.83;13.70;;;2.20;99.90;;;;;;5013622;28;20731;-81
2021/01/10 05:14:33;;;;;;;21.67;13.23;;;2.20;99.90;;;;;;5013777;28;20693;-81
2021/01/10 05:16:59;;;;;;;22.50;15.10;;;2.30;99.90;;;;;;5013784;28;20234;-81
2021/01/10 05:19:28;;;;;;;24.63;14.73;;;2.40;99.90;;;;;;5014009;28;20187;-81
2021/01/10 05:21:54;;;;;;;23.87;15.43;;;2.40;99.90;;;;;;5029928;28;20196;-81
2021/01/10 05:24:20;;;;;;;24.03;15.20;;;2.40;99.90;;;;;;5030364;28;20168;-81
2021/01/10 05:26:46;;;;;;;24.40;15.90;;;2.40;99.90;;;;;;5010720;28;20596;-81
2021/01/10 05:29:12;;;;;;;22.37;16.07;;;2.40;99.90;;;;;;4994005;28;20168;-81
2021/01/10 05:31:42;;;;;;;23.03;15.80;;;2.50;99.90;;;;;;4976862;28;20643;-81
2021/01/10 05:34:13;;;;;;;26.33;16.43;;;2.50;99.90;;;;;;5002834;28;20192;-81
2021/01/10 05:36:38;;;;;;;28.57;16.37;;;2.40;99.90;;;;;;5008636;28;20632;-81
2021/01/10 05:39:30;;;;;;;26.30;16.33;;;2.40;99.90;;;;;;4988300;28;20216;-81
2021/01/10 05:41:59;;;;;;;24.57;16.67;;;2.40;99.90;;;;;;5015919;28;20346;-81
2021/01/10 05:44:28;;;;;;;27.13;17.33;;;2.40;99.90;;;;;;5001902;28;20698;-81
2021/01/10 05:47:20;;;;;;;29.07;18.13;;;2.40;99.90;;;;;;4985038;28;20180;-81
2021/01/10 05:49:53;;;;;;;27.03;16.20;;;2.50;99.90;;;;;;5000775;28;20195;-81
2021/01/10 05:52:19;;;;;;;30.07;17.30;;;2.50;99.90;;;;;;4989260;28;20658;-82
2021/01/10 05:54:58;;;;;;;27.97;16.47;;;2.40;99.90;;;;;;4990692;28;20658;-82
2021/01/10 05:57:30;;;;;;;23.47;15.13;;;2.40;99.90;;;;;;4989460;28;20246;-82
2021/01/10 05:59:56;;;;;;;26.37;16.67;;;2.30;99.90;;;;;;5004493;28;20180;-81
2021/01/10 06:02:31;;;;;;;24.13;15.43;;;2.30;99.90;;;;;;5005067;28;20246;-81
2021/01/10 06:05:19;;;;;;;24.07;16.00;;;2.40;99.90;;;;;;5004520;28;20168;-81
2021/01/10 06:07:46;;;;;;;26.03;16.07;;;2.30;99.90;;;;;;4988258;28;20594;-82
2021/01/10 06:10:12;;;;;;;28.20;16.50;;;2.40;99.90;;;;;;4989712;28;20176;-82
2021/01/10 06:12:39;;;;;;;24.07;15.07;;;2.20;99.90;;;;;;4988877;28;20489;-82
2021/01/10 06:15:23;;;;;;;27.57;15.70;;;2.20;99.90;;;;;;5003948;28;20254;-81
2021/01/10 06:17:49;;;;;;;26.07;16.50;;;2.20;99.90;;;;;;5004529;28;20199;-82
2021/01/10 06:20:32;;;;;;;25.93;14.80;;;2.20;99.90;;;;;;4988659;28;20191;-81
2021/01/10 06:22:58;;;;;;;23.13;14.07;;;2.30;99.90;;;;;;4988358;28;20226;-81
2021/01/10 06:25:37;;;;;;;22.60;14.43;;;2.30;99.90;;;;;;4988273;28;20188;-82
2021/01/10 06:28:10;;;;;;;25.27;14.50;;;2.20;99.90;;;;;;4986069;28;20230;-80
2021/01/10 06:30:37;;;;;;;21.13;13.97;;;2.30;99.90;;;;;;4987706;28;20195;-82
2021/01/10 06:33:10;;;;;;;21.97;14.80;;;2.30;99.90;;;;;;4989122;28;20323;-81
2021/01/10 06:35:37;;;;;;;22.10;14.13;;;2.20;99.90;;;;;;4990495;28;20184;-81
2021/01/10 06:38:04;;;;;;;23.70;14.60;;;2.40;99.90;;;;;;5009437;28;20176;-81
2021/01/10 06:40:35;;;;;;;26.23;15.83;;;2.30;99.90;;;;;;4990691;28;20180;-82
2021/01/10 06:43:02;;;;;;;21.17;14.57;;;2.20;99.90;;;;;;5006228;28;20216;-81
2021/01/10 06:45:33;;;;;;;24.10;14.43;;;2.10;99.90;;;;;;4989434;28;20187;-82
2021/01/10 06:47:59;;;;;;;21.07;13.90;;;2.20;99.90;;;;;;4997202;28;20312;-81
2021/01/10 06:50:24;;;;;;;24.43;14.77;;;2.20;99.90;;;;;;4976685;28;20208;-81
2021/01/10 06:52:50;;;;;;;24.00;14.23;;;2.10;99.90;;;;;;4992993;28;20219;-81
2021/01/10 06:55:17;;;;;;;22.07;14.00;;;2.20;99.90;;;;;;4976602;28;20180;-81
2021/01/10 06:57:43;;;;;;;24.83;15.20;;;2.20;99.90;;;;;;4976458;28;20181;-82
2021/01/10 07:00:09;;;;;;;23.33;14.13;;;2.20;99.90;;;;;;4975518;28;20186;-81
2021/01/10 07:03:07;;;;;;;27.53;15.70;;;2.20;99.90;;;;;;4975983;28;20211;-81
2021/01/10 07:05:56;;;;;;;21.43;14.37;;;2.10;99.90;;;;;;4976146;28;20229;-81
2021/01/10 07:08:37;;;;;;;22.63;14.70;;;2.00;99.90;;;;;;5008370;28;20184;-81
2021/01/10 07:11:21;;;;;;;23.20;15.30;;;2.00;99.90;;;;;;4976920;28;20199;-81
2021/01/10 07:13:56;;;;;;;21.73;14.77;;;2.10;99.90;;;;;;4992071;28;20206;-81
2021/01/10 07:16:22;;;;;;;28.33;15.43;;;2.10;99.90;;;;;;4992309;28;20177;-81
2021/01/10 07:18:54;;;;;;;26.03;16.07;;;2.10;99.90;;;;;;4976162;28;20184;-80
2021/01/10 07:21:31;;;;;;;22.53;14.67;;;2.10;99.90;;;;;;4980549;28;20244;-82
2021/01/10 07:24:12;;;;;;;23.53;15.53;;;2.10;99.90;;;;;;5006101;28;20234;-81
2021/01/10 07:26:51;;;;;;;23.10;15.67;;;2.10;99.90;;;;;;5006637;28;20287;-82
2021/01/10 07:29:35;;;;;;;23.57;14.70;;;2.20;99.90;;;;;;4989946;28;20273;-82
2021/01/10 07:32:20;;;;;;;22.87;15.07;;;2.10;99.90;;;;;;5018527;28;20207;-82
2021/01/10 07:35:00;;;;;;;25.33;15.20;;;2.10;99.90;;;;;;5003613;28;20196;-82
2021/01/10 07:37:29;;;;;;;24.07;16.30;;;2.20;99.90;;;;;;5022172;28;20527;-82
2021/01/10 07:40:07;;;;;;;25.70;16.30;;;2.10;99.90;;;;;;5001444;28;20218;-82
2021/01/10 07:42:33;;;;;;;25.67;16.03;;;2.10;99.90;;;;;;5029403;28;20215;-82
2021/01/10 07:45:17;;;;;;;25.37;16.30;;;2.10;99.90;;;;;;5024191;28;20176;-82
2021/01/10 07:47:44;;;;;;;24.20;16.07;;;2.20;99.90;;;;;;5033207;28;20164;-82
2021/01/10 07:50:18;;;;;;;23.37;16.00;;;2.20;99.90;;;;;;5005972;28;20171;-81
2021/01/10 07:52:46;;;;;;;28.90;16.30;;;2.20;99.90;;;;;;5032143;28;20195;-81
2021/01/10 07:55:11;;;;;;;28.90;17.73;;;2.20;99.90;;;;;;5028629;28;20261;-81
2021/01/10 07:57:37;;;;;;;29.03;17.70;;;2.10;99.90;;;;;;5024997;28;20204;-82
2021/01/10 08:00:11;;;;;;;30.10;19.50;;;2.20;99.90;;;;;;5024948;28;20179;-81
2021/01/10 08:02:52;;;;;;;29.53;19.93;;;2.20;99.90;;;;;;5021352;28;20212;-82
2021/01/10 08:05:19;;;;;;;38.93;20.97;;;2.10;99.90;;;;;;5007221;28;20179;-81
2021/01/10 08:07:46;;;;;;;31.20;20.30;;;2.10;99.90;;;;;;4988533;28;20279;-81
2021/01/10 08:10:13;;;;;;;35.77;22.03;;;2.10;99.90;;;;;;5004704;28;20171;-81
2021/01/10 08:12:39;;;;;;;32.07;21.33;;;2.10;99.90;;;;;;5008540;28;20223;-81
2021/01/10 08:15:06;;;;;;;39.90;22.77;;;2.10;99.90;;;;;;5008494;28;20203;-81
2021/01/10 08:17:32;;;;;;;34.20;21.63;;;2.10;99.90;;;;;;4991458;28;20187;-81
2021/01/10 08:19:59;;;;;;;35.70;22.67;;;2.20;99.90;;;;;;4986787;28;20184;-81
2021/01/10 08:22:24;;;;;;;34.63;22.63;;;2.20;99.90;;;;;;4991289;28;20199;-82
2021/01/10 08:24:50;;;;;;;38.37;22.47;;;2.20;99.90;;;;;;5025518;28;20187;-82
2021/01/10 08:27:15;;;;;;;37.00;23.73;;;2.20;99.90;;;;;;5021539;28;20171;-76
2021/01/10 08:29:42;;;;;;;35.57;22.63;;;2.20;99.90;;;;;;5045348;28;20604;-82
2021/01/10 08:32:08;;;;;;;33.53;21.13;;;2.20;99.90;;;;;;5037625;28;20255;-83
2021/01/10 08:34:47;;;;;;;36.27;22.50;;;2.30;99.90;;;;;;5037725;28;20176;-83
2021/01/10 08:37:14;;;;;;;35.33;21.53;;;2.30;99.90;;;;;;5029563;28;20167;-85
2021/01/10 08:39:40;;;;;;;33.10;22.37;;;2.30;99.90;;;;;;5002606;28;20157;-83
2021/01/10 08:42:05;;;;;;;33.33;21.70;;;2.30;99.90;;;;;;5004008;28;20235;-82
2021/01/10 08:44:31;;;;;;;37.97;21.23;;;2.30;99.90;;;;;;5004133;28;20171;-84
2021/01/10 08:46:56;;;;;;;34.07;20.23;;;2.20;99.90;;;;;;5003986;28;20168;-84
2021/01/10 08:49:23;;;;;;;29.43;18.60;;;2.30;99.90;;;;;;4991913;28;20187;-80
2021/01/10 08:51:49;;;;;;;33.10;18.00;;;2.30;99.90;;;;;;4999530;28;20206;-80
2021/01/10 08:54:15;;;;;;;27.37;16.77;;;2.30;99.90;;;;;;5000257;28;20163;-79
2021/01/10 08:56:41;;;;;;;28.47;18.13;;;2.40;99.90;;;;;;4997812;28;20187;-79
2021/01/10 09:02:41;;;;;;;26.60;16.83;;;2.50;99.90;;;;;;5016616;28;20438;-85
2021/01/10 09:05:11;;;;;;;25.73;17.77;;;2.40;99.90;;;;;;5030157;28;20191;-82
2021/01/10 09:07:37;;;;;;;30.60;17.67;;;2.40;99.90;;;;;;5008823;28;20186;-81
2021/01/10 09:10:08;;;;;;;27.00;17.57;;;2.50;99.90;;;;;;4994391;28;20175;-81
2021/01/10 09:12:49;;;;;;;25.90;17.47;;;2.50;99.90;;;;;;5014296;28;20207;-81
2021/01/10 09:15:22;;;;;;;26.53;17.00;;;2.60;99.90;;;;;;4987147;28;20179;-81
2021/01/10 09:17:50;;;;;;;31.47;17.27;;;2.50;99.90;;;;;;5007616;28;20234;-79
2021/01/10 09:20:19;;;;;;;27.13;18.53;;;2.40;99.90;;;;;;5010584;28;20553;-82
2021/01/10 09:22:45;;;;;;;30.10;17.60;;;2.50;99.90;;;;;;5009979;28;20212;-82
2021/01/10 09:25:15;;;;;;;28.60;18.47;;;2.50;99.90;;;;;;4990017;28;20187;-81
2021/01/10 09:28:05;;;;;;;25.67;17.10;;;2.60;99.90;;;;;;4990040;28;20168;-81
2021/01/10 09:30:31;;;;;;;33.80;18.23;;;2.70;99.90;;;;;;5023194;28;20643;-80
2021/01/10 09:33:10;;;;;;;27.93;17.70;;;2.80;99.90;;;;;;5023279;28;20230;-83
2021/01/10 09:35:41;;;;;;;26.33;16.77;;;2.80;99.90;;;;;;5029513;28;20182;-81
2021/01/10 09:38:08;;;;;;;28.03;16.57;;;2.90;99.90;;;;;;5030900;28;20194;-83
2021/01/10 09:40:33;;;;;;;28.43;17.77;;;2.90;99.90;;;;;;5030405;28;20515;-83
2021/01/10 09:42:59;;;;;;;25.07;16.40;;;2.90;99.90;;;;;;5038257;28;20218;-85
2021/01/10 09:45:33;;;;;;;30.87;18.03;;;2.90;99.90;;;;;;5016200;28;20181;-81
2021/01/10 09:47:58;;;;;;;24.77;16.60;;;3.00;99.90;;;;;;5000453;28;20180;-81
2021/01/10 09:50:24;;;;;;;29.03;15.90;;;2.90;99.90;;;;;;5017472;28;20174;-81
2021/01/10 09:52:53;;;;;;;27.20;16.77;;;3.00;99.90;;;;;;5043442;28;20269;-79
2021/01/10 09:55:28;;;;;;;26.77;16.37;;;3.10;99.90;;;;;;5018837;28;20187;-83
2021/01/10 09:58:13;;;;;;;23.53;16.50;;;3.00;99.90;;;;;;5037544;28;20186;-83
2021/01/10 10:00:39;;;;;;;28.00;16.33;;;3.10;99.90;;;;;;5028631;28;20234;-80
2021/01/10 10:03:10;;;;;;;25.03;16.50;;;3.10;99.90;;;;;;5008830;28;20208;-79
2021/01/10 10:06:38;;;;;;;28.30;16.17;;;3.10;99.90;;;;;;5009877;28;20176;-83
2021/01/10 10:09:08;;;;;;;26.77;16.17;;;3.20;99.90;;;;;;5036194;28;20220;-82
2021/01/10 10:11:33;;;;;;;24.17;15.43;;;3.10;99.90;;;;;;5008580;28;20175;-82
2021/01/10 10:13:59;;;;;;;23.93;15.00;;;3.20;99.90;;;;;;5017749;28;20239;-83
2021/01/10 10:16:25;;;;;;;27.07;14.53;;;3.10;99.90;;;;;;4975925;28;20165;-81
2021/01/10 10:18:50;;;;;;;24.60;15.10;;;3.30;99.90;;;;;;4986906;28;20272;-82
2021/01/10 10:21:22;;;;;;;26.23;14.40;;;3.30;99.90;;;;;;4988618;28;20176;-81
2021/01/10 10:23:48;;;;;;;26.93;14.57;;;3.40;99.90;;;;;;5017631;28;20211;-84
2021/01/10 10:26:14;;;;;;;23.00;13.67;;;3.40;99.90;;;;;;5008251;28;20709;-81
2021/01/10 10:28:39;;;;;;;26.03;15.43;;;3.40;99.90;;;;;;5009884;28;20172;-81
2021/01/10 10:31:05;;;;;;;22.93;14.40;;;3.20;99.90;;;;;;5025498;28;20207;-81
2021/01/10 10:33:30;;;;;;;25.43;15.00;;;3.30;99.90;;;;;;5031300;28;20238;-81
2021/01/10 10:35:57;;;;;;;25.40;14.53;;;3.30;99.90;;;;;;5050859;28;20194;-81
2021/01/10 10:38:22;;;;;;;25.60;14.30;;;3.40;99.90;;;;;;5052571;28;20198;-81
2021/01/10 10:40:48;;;;;;;28.20;14.03;;;3.40;99.90;;;;;;5018842;28;20190;-80
2021/01/10 10:43:13;;;;;;;23.50;13.70;;;3.40;99.90;;;;;;5032047;28;20200;-81
2021/01/10 10:45:39;;;;;;;24.83;14.80;;;3.40;99.90;;;;;;5007426;28;20180;-81
2021/01/10 10:48:05;;;;;;;25.73;13.40;;;3.60;99.90;;;;;;5020359;28;20210;-81
2021/01/10 10:50:31;;;;;;;29.60;14.93;;;3.60;99.90;;;;;;5030888;28;20221;-81
2021/01/10 10:52:56;;;;;;;23.27;13.97;;;3.50;99.90;;;;;;5020575;28;20211;-82
2021/01/10 10:55:25;;;;;;;24.23;14.07;;;3.50;99.90;;;;;;5024015;28;20202;-81
2021/01/10 10:57:52;;;;;;;24.83;14.03;;;3.50;99.90;;;;;;4978577;28;20180;-83
2021/01/10 11:00:18;;;;;;;27.97;14.53;;;3.60;99.90;;;;;;4989277;28;20171;-82
2021/01/10 11:02:44;;;;;;;27.87;15.17;;;3.60;99.90;;;;;;5012960;28;20218;-81
2021/01/10 11:05:11;;;;;;;24.07;14.13;;;3.60;99.90;;;;;;5028304;28;20187;-81
2021/01/10 11:07:37;;;;;;;30.83;15.37;;;3.60;99.90;;;;;;4995014;28;20208;-81
2021/01/10 11:10:05;;;;;;;28.23;15.00;;;3.70;99.90;;;;;;4981926;28;20645;-81
2021/01/10 11:12:32;;;;;;;25.43;14.77;;;3.80;99.90;;;;;;5004078;28;20199;-82
2021/01/10 11:14:58;;;;;;;27.83;16.53;;;3.80;99.90;;;;;;5013282;28;20636;-81
2021/01/10 11:17:24;;;;;;;37.27;16.87;;;3.90;99.90;;;;;;4998382;28;20182;-79
2021/01/10 11:19:50;;;;;;;32.30;14.67;;;3.90;99.90;;;;;;4965987;28;20179;-78
2021/01/10 11:22:15;;;;;;;30.83;16.10;;;3.90;99.90;;;;;;4978967;28;20203;-79
2021/01/10 11:24:42;;;;;;;34.97;16.33;;;3.90;99.90;;;;;;5007917;28;20180;-80
2021/01/10 11:27:09;;;;;;;30.73;17.50;;;3.70;99.90;;;;;;5006531;28;20203;-83
2021/01/10 11:29:36;;;;;;;36.80;17.43;;;3.70;99.90;;;;;;4982369;28;20175;-83
2021/01/10 11:32:03;;;;;;;31.23;17.77;;;3.80;99.90;;;;;;4978439;28;20209;-81
2021/01/10 11:34:30;;;;;;;32.57;16.87;;;3.80;99.90;;;;;;4981449;28;20195;-84
2021/01/10 11:37:15;;;;;;;34.03;17.27;;;3.70;99.90;;;;;;4993408;28;20194;-79
2021/01/10 11:39:46;;;;;;;32.97;17.70;;;3.80;99.90;;;;;;4999098;28;20193;-83
2021/01/10 11:42:18;;;;;;;42.63;19.17;;;3.80;99.90;;;;;;5021173;28;20337;-83
2021/01/10 11:44:45;;;;;;;33.23;16.13;;;3.90;99.90;;;;;;5027598;28;20178;-82
2021/01/10 11:47:10;;;;;;;36.27;16.37;;;3.90;99.90;;;;;;4998034;28;20188;-83
2021/01/10 11:49:36;;;;;;;36.10;16.70;;;4.00;99.90;;;;;;5021342;28;20631;-83
2021/01/10 11:52:02;;;;;;;37.07;17.73;;;3.90;99.90;;;;;;4985783;28;20229;-83
2021/01/10 11:54:27;;;;;;;33.77;16.67;;;3.90;99.90;;;;;;4983915;28;20287;-81
2021/01/10 11:56:53;;;;;;;31.33;16.30;;;3.80;99.90;;;;;;4983569;28;20262;-79
2021/01/10 11:59:18;;;;;;;31.23;16.20;;;4.00;99.90;;;;;;4978723;28;20187;-78
2021/01/10 12:01:44;;;;;;;34.67;17.10;;;4.20;99.90;;;;;;5005196;28;20715;-76
2021/01/10 12:04:10;;;;;;;35.77;17.90;;;4.20;99.90;;;;;;4998503;28;20211;-78
2021/01/10 12:06:38;;;;;;;37.47;18.17;;;4.30;99.90;;;;;;4999077;28;20234;-78
2021/01/10 12:09:10;;;;;;;32.90;16.27;;;4.30;99.90;;;;;;4986018;28;20181;-82
2021/01/10 12:11:37;;;;;;;36.67;17.03;;;4.20;99.90;;;;;;4980911;28;20181;-80
2021/01/10 12:14:02;;;;;;;33.53;16.17;;;4.20;99.90;;;;;;4999778;28;20199;-80
2021/01/10 12:16:28;;;;;;;35.33;17.30;;;4.20;99.90;;;;;;4982633;28;20179;-79
2021/01/10 12:18:53;;;;;;;35.37;16.77;;;4.10;99.90;;;;;;4983266;28;20176;-80
2021/01/10 12:21:19;;;;;;;37.07;18.93;;;4.10;99.90;;;;;;4982620;28;20201;-76
2021/01/10 12:23:46;;;;;;;36.00;16.27;;;4.20;99.90;;;;;;4982726;28;20289;-80
2021/01/10 12:26:14;;;;;;;32.77;17.17;;;4.00;99.90;;;;;;4983023;28;20171;-80
2021/01/10 12:28:41;;;;;;;34.60;16.47;;;4.20;99.90;;;;;;4984523;28;20202;-80
2021/01/10 12:31:06;;;;;;;36.43;16.70;;;4.30;99.90;;;;;;4982692;28;20172;-77
2021/01/10 12:33:32;;;;;;;37.73;17.00;;;4.30;99.90;;;;;;4998201;28;20647;-80
2021/01/10 12:36:01;;;;;;;35.83;16.63;;;4.10;99.90;;;;;;4981485;28;20271;-80
2021/01/10 12:38:30;;;;;;;31.43;16.53;;;4.10;99.90;;;;;;4983314;28;20175;-82
2021/01/10 12:40:56;;;;;;;33.10;15.60;;;4.30;99.90;;;;;;4974950;28;20181;-80
2021/01/10 12:43:22;;;;;;;33.57;15.07;;;4.40;99.90;;;;;;4963517;28;20636;-80
2021/01/10 12:45:47;;;;;;;28.80;14.03;;;4.10;99.90;;;;;;5003539;28;20202;-80